sensor_id;sensor_type;location;lat;lon;timestamp;pressure;altitude;pressure_sealevel;temperature;humidity
13594;BME280;6449;47.666;9.160;2023-02-23T00:03:17;96679.09;;;8.95;100.00
13594;BME280;6449;47.666;9.160;2023-02-23T00:08:11;96676.38;;;8.97;100.00
13594;BME280;6449;47.666;9.160;2023-02-23T00:13:06;96683.25;;;8.98;100.00
13594;BME280;6449;47.666;9.160;2023-02-23T00:18:02;96682.13;;;8.89;100.00
13594;BME280;6449;47.666;9.160;2023-02-23T00:22:56;96675.47;;;8.85;100.00
13594;BME280;6449;47.666;9.160;2023-02-23T00:27:49;96680.28;;;8.78;100.00
13594;BME280;6449;47.666;9.160;2023-02-23T00:32:45;96675.31;;;8.75;100.00
13594;BME280;6449;47.666;9.160;2023-02-23T00:37:39;96678.88;;;8.74;100.00
13594;BME280;6449;47.666;9.160;2023-02-23T00:42:32;96674.56;;;8.73;100.00
13594;BME280;6449;47.666;9.160;2023-02-23T00:47:26;96666.00;;;8.71;100.00
13594;BME280;6449;47.666;9.160;2023-02-23T00:52:21;96667.66;;;8.72;100.00
13594;BME280;6449;47.666;9.160;2023-02-23T00:57:14;96666.63;;;8.75;100.00
13594;BME280;6449;47.666;9.160;2023-02-23T01:02:08;96666.13;;;8.70;100.00
13594;BME280;6449;47.666;9.160;2023-02-23T01:07:01;96657.34;;;8.71;100.00
13594;BME280;6449;47.666;9.160;2023-02-23T01:11:58;96658.50;;;8.66;100.00
13594;BME280;6449;47.666;9.160;2023-02-23T01:16:53;96652.56;;;8.64;100.00
13594;BME280;6449;47.666;9.160;2023-02-23T01:21:46;96646.72;;;8.61;100.00
13594;BME280;6449;47.666;9.160;2023-02-23T01:26:43;96644.34;;;8.58;100.00
13594;BME280;6449;47.666;9.160;2023-02-23T01:31:43;96648.69;;;8.57;100.00
13594;BME280;6449;47.666;9.160;2023-02-23T01:36:39;96639.53;;;8.52;100.00
13594;BME280;6449;47.666;9.160;2023-02-23T01:41:35;96639.31;;;8.55;100.00
13594;BME280;6449;47.666;9.160;2023-02-23T01:46:34;96633.25;;;8.54;100.00
13594;BME280;6449;47.666;9.160;2023-02-23T01:51:37;96629.56;;;8.57;100.00
13594;BME280;6449;47.666;9.160;2023-02-23T01:56:38;96626.13;;;8.56;100.00
13594;BME280;6449;47.666;9.160;2023-02-23T02:01:34;96629.06;;;8.52;100.00
13594;BME280;6449;47.666;9.160;2023-02-23T02:06:32;96618.63;;;8.52;100.00
13594;BME280;6449;47.666;9.160;2023-02-23T02:11:26;96616.97;;;8.51;100.00
13594;BME280;6449;47.666;9.160;2023-02-23T02:16:53;96605.28;;;8.44;100.00
13594;BME280;6449;47.666;9.160;2023-02-23T02:22:40;96614.09;;;8.43;100.00
13594;BME280;6449;47.666;9.160;2023-02-23T02:34:03;96596.25;;;8.36;100.00
13594;BME280;6449;47.666;9.160;2023-02-23T02:39:16;96601.22;;;8.39;100.00
13594;BME280;6449;47.666;9.160;2023-02-23T02:44:22;96590.06;;;8.37;100.00
13594;BME280;6449;47.666;9.160;2023-02-23T02:49:26;96596.97;;;8.26;100.00
13594;BME280;6449;47.666;9.160;2023-02-23T02:54:30;96598.63;;;8.27;100.00
13594;BME280;6449;47.666;9.160;2023-02-23T02:59:24;96590.69;;;8.28;100.00
13594;BME280;6449;47.666;9.160;2023-02-23T03:04:35;96587.88;;;8.31;100.00
13594;BME280;6449;47.666;9.160;2023-02-23T03:09:56;96582.31;;;8.36;100.00
13594;BME280;6449;47.666;9.160;2023-02-23T03:15:31;96572.72;;;8.36;100.00
13594;BME280;6449;47.666;9.160;2023-02-23T03:20:53;96578.13;;;8.33;100.00
13594;BME280;6449;47.666;9.160;2023-02-23T03:26:15;96582.72;;;8.30;100.00
13594;BME280;6449;47.666;9.160;2023-02-23T03:31:40;96585.06;;;8.22;100.00
13594;BME280;6449;47.666;9.160;2023-02-23T03:37:04;96585.47;;;8.28;100.00
13594;BME280;6449;47.666;9.160;2023-02-23T03:42:29;96588.41;;;8.24;100.00
13594;BME280;6449;47.666;9.160;2023-02-23T03:47:43;96582.47;;;8.22;100.00
13594;BME280;6449;47.666;9.160;2023-02-23T03:52:59;96589.47;;;8.21;100.00
13594;BME280;6449;47.666;9.160;2023-02-23T03:58:18;96591.00;;;8.24;100.00
13594;BME280;6449;47.666;9.160;2023-02-23T04:03:37;96590.69;;;8.28;100.00
13594;BME280;6449;47.666;9.160;2023-02-23T04:08:50;96589.34;;;8.23;100.00
13594;BME280;6449;47.666;9.160;2023-02-23T04:14:10;96594.69;;;8.21;100.00
13594;BME280;6449;47.666;9.160;2023-02-23T04:19:05;96594.19;;;8.16;100.00
13594;BME280;6449;47.666;9.160;2023-02-23T04:23:59;96593.13;;;8.19;100.00
13594;BME280;6449;47.666;9.160;2023-02-23T04:28:52;96594.25;;;8.27;100.00
13594;BME280;6449;47.666;9.160;2023-02-23T04:33:47;96586.28;;;8.29;100.00
13594;BME280;6449;47.666;9.160;2023-02-23T04:38:40;96589.63;;;8.31;100.00
13594;BME280;6449;47.666;9.160;2023-02-23T04:43:33;96592.16;;;8.20;100.00
13594;BME280;6449;47.666;9.160;2023-02-23T04:48:27;96593.84;;;8.21;100.00
13594;BME280;6449;47.666;9.160;2023-02-23T04:53:21;96601.00;;;8.06;100.00
13594;BME280;6449;47.666;9.160;2023-02-23T04:58:15;96607.38;;;8.02;100.00
13594;BME280;6449;47.666;9.160;2023-02-23T05:03:08;96605.59;;;8.02;100.00
13594;BME280;6449;47.666;9.160;2023-02-23T05:08:03;96601.19;;;8.03;100.00
13594;BME280;6449;47.666;9.160;2023-02-23T05:12:58;96599.22;;;8.06;100.00
13594;BME280;6449;47.666;9.160;2023-02-23T05:17:53;96603.16;;;8.12;100.00
13594;BME280;6449;47.666;9.160;2023-02-23T05:22:47;96591.38;;;8.06;100.00
13594;BME280;6449;47.666;9.160;2023-02-23T05:27:40;96597.44;;;8.07;100.00
13594;BME280;6449;47.666;9.160;2023-02-23T05:32:35;96587.19;;;8.04;100.00
13594;BME280;6449;47.666;9.160;2023-02-23T05:37:29;96592.41;;;8.04;100.00
13594;BME280;6449;47.666;9.160;2023-02-23T05:42:22;96590.34;;;7.96;100.00
13594;BME280;6449;47.666;9.160;2023-02-23T05:47:16;96585.97;;;7.97;100.00
13594;BME280;6449;47.666;9.160;2023-02-23T05:52:10;96591.63;;;7.91;100.00
13594;BME280;6449;47.666;9.160;2023-02-23T05:57:04;96589.03;;;7.91;100.00
13594;BME280;6449;47.666;9.160;2023-02-23T06:01:57;96593.94;;;7.82;100.00
13594;BME280;6449;47.666;9.160;2023-02-23T06:06:51;96592.06;;;7.72;100.00
13594;BME280;6449;47.666;9.160;2023-02-23T06:11:45;96599.13;;;7.82;100.00
13594;BME280;6449;47.666;9.160;2023-02-23T06:16:39;96600.91;;;7.82;100.00
13594;BME280;6449;47.666;9.160;2023-02-23T06:21:32;96605.09;;;7.84;100.00
13594;BME280;6449;47.666;9.160;2023-02-23T06:26:26;96605.75;;;7.75;100.00
13594;BME280;6449;47.666;9.160;2023-02-23T06:31:22;96608.53;;;7.72;100.00
13594;BME280;6449;47.666;9.160;2023-02-23T06:36:15;96611.47;;;7.80;100.00
13594;BME280;6449;47.666;9.160;2023-02-23T06:41:10;96622.97;;;7.78;100.00
13594;BME280;6449;47.666;9.160;2023-02-23T06:46:04;96620.66;;;7.86;100.00
13594;BME280;6449;47.666;9.160;2023-02-23T06:51:00;96618.69;;;7.90;100.00
13594;BME280;6449;47.666;9.160;2023-02-23T06:55:53;96626.94;;;7.83;100.00
13594;BME280;6449;47.666;9.160;2023-02-23T07:00:47;96628.19;;;7.78;100.00
13594;BME280;6449;47.666;9.160;2023-02-23T07:05:40;96625.44;;;7.92;100.00
13594;BME280;6449;47.666;9.160;2023-02-23T07:10:35;96640.50;;;7.88;100.00
13594;BME280;6449;47.666;9.160;2023-02-23T07:15:29;96642.69;;;7.95;100.00
13594;BME280;6449;47.666;9.160;2023-02-23T07:20:22;96641.22;;;7.91;100.00
13594;BME280;6449;47.666;9.160;2023-02-23T07:25:16;96643.50;;;7.95;100.00
13594;BME280;6449;47.666;9.160;2023-02-23T07:30:12;96644.75;;;8.02;100.00
13594;BME280;6449;47.666;9.160;2023-02-23T07:35:09;96654.44;;;8.13;100.00
13594;BME280;6449;47.666;9.160;2023-02-23T07:40:03;96650.69;;;8.17;100.00
13594;BME280;6449;47.666;9.160;2023-02-23T07:44:57;96655.19;;;8.15;100.00
13594;BME280;6449;47.666;9.160;2023-02-23T07:49:52;96653.38;;;8.28;100.00
13594;BME280;6449;47.666;9.160;2023-02-23T07:54:45;96656.63;;;8.19;100.00
13594;BME280;6449;47.666;9.160;2023-02-23T07:59:38;96655.59;;;8.22;100.00
13594;BME280;6449;47.666;9.160;2023-02-23T08:04:32;96655.97;;;8.28;100.00
13594;BME280;6449;47.666;9.160;2023-02-23T08:09:27;96649.59;;;8.32;100.00
13594;BME280;6449;47.666;9.160;2023-02-23T08:14:22;96644.13;;;8.35;100.00
13594;BME280;6449;47.666;9.160;2023-02-23T08:19:15;96647.31;;;8.28;100.00
13594;BME280;6449;47.666;9.160;2023-02-23T08:24:09;96656.31;;;8.36;100.00
13594;BME280;6449;47.666;9.160;2023-02-23T08:29:04;96665.47;;;8.29;100.00
13594;BME280;6449;47.666;9.160;2023-02-23T08:33:58;96665.91;;;8.23;100.00
13594;BME280;6449;47.666;9.160;2023-02-23T08:38:52;96666.22;;;8.31;100.00
13594;BME280;6449;47.666;9.160;2023-02-23T08:43:46;96661.69;;;8.46;100.00
13594;BME280;6449;47.666;9.160;2023-02-23T08:48:41;96655.69;;;8.57;100.00
13594;BME280;6449;47.666;9.160;2023-02-23T08:53:35;96655.28;;;8.63;100.00
13594;BME280;6449;47.666;9.160;2023-02-23T08:58:35;96647.06;;;8.80;100.00
13594;BME280;6449;47.666;9.160;2023-02-23T09:03:32;96660.34;;;8.77;100.00
13594;BME280;6449;47.666;9.160;2023-02-23T09:08:33;96654.16;;;8.78;100.00
13594;BME280;6449;47.666;9.160;2023-02-23T09:13:26;96660.38;;;8.88;100.00
13594;BME280;6449;47.666;9.160;2023-02-23T09:18:19;96667.91;;;9.17;100.00
13594;BME280;6449;47.666;9.160;2023-02-23T09:23:15;96669.13;;;9.35;100.00
13594;BME280;6449;47.666;9.160;2023-02-23T09:28:11;96673.44;;;9.48;100.00
13594;BME280;6449;47.666;9.160;2023-02-23T09:33:05;96687.47;;;9.47;100.00
13594;BME280;6449;47.666;9.160;2023-02-23T09:37:59;96687.50;;;9.58;100.00
13594;BME280;6449;47.666;9.160;2023-02-23T09:43:02;96685.63;;;9.71;100.00
13594;BME280;6449;47.666;9.160;2023-02-23T09:48:13;96699.44;;;9.73;100.00
13594;BME280;6449;47.666;9.160;2023-02-23T09:53:23;96706.00;;;9.79;100.00
13594;BME280;6449;47.666;9.160;2023-02-23T09:58:22;96693.75;;;9.90;100.00
13594;BME280;6449;47.666;9.160;2023-02-23T10:03:27;96696.16;;;10.05;100.00
13594;BME280;6449;47.666;9.160;2023-02-23T10:08:41;96686.84;;;10.12;100.00
13594;BME280;6449;47.666;9.160;2023-02-23T10:13:49;96691.53;;;10.31;100.00
13594;BME280;6449;47.666;9.160;2023-02-23T10:18:57;96698.34;;;10.44;100.00
13594;BME280;6449;47.666;9.160;2023-02-23T10:24:01;96710.59;;;10.55;100.00
13594;BME280;6449;47.666;9.160;2023-02-23T10:28:58;96709.50;;;10.69;100.00
13594;BME280;6449;47.666;9.160;2023-02-23T10:33:56;96719.84;;;10.70;100.00
13594;BME280;6449;47.666;9.160;2023-02-23T10:38:51;96731.88;;;10.84;100.00
13594;BME280;6449;47.666;9.160;2023-02-23T10:43:44;96735.09;;;10.88;100.00
13594;BME280;6449;47.666;9.160;2023-02-23T10:48:41;96740.72;;;10.72;100.00
13594;BME280;6449;47.666;9.160;2023-02-23T10:53:36;96722.09;;;10.75;100.00
13594;BME280;6449;47.666;9.160;2023-02-23T10:58:39;96732.72;;;10.73;100.00
13594;BME280;6449;47.666;9.160;2023-02-23T11:03:39;96733.13;;;10.46;100.00
13594;BME280;6449;47.666;9.160;2023-02-23T11:08:37;96722.16;;;10.53;100.00
13594;BME280;6449;47.666;9.160;2023-02-23T11:13:41;96717.16;;;10.49;100.00
13594;BME280;6449;47.666;9.160;2023-02-23T11:18:40;96717.63;;;10.55;100.00
13594;BME280;6449;47.666;9.160;2023-02-23T11:23:37;96707.59;;;10.60;100.00
13594;BME280;6449;47.666;9.160;2023-02-23T11:28:36;96696.38;;;10.69;100.00
13594;BME280;6449;47.666;9.160;2023-02-23T11:33:37;96705.19;;;10.79;100.00
13594;BME280;6449;47.666;9.160;2023-02-23T11:38:31;96701.50;;;10.82;100.00
13594;BME280;6449;47.666;9.160;2023-02-23T11:43:27;96687.44;;;10.83;100.00
13594;BME280;6449;47.666;9.160;2023-02-23T11:48:26;96689.78;;;10.86;100.00
13594;BME280;6449;47.666;9.160;2023-02-23T11:53:29;96690.16;;;10.81;100.00
13594;BME280;6449;47.666;9.160;2023-02-23T11:58:34;96687.53;;;10.81;100.00
13594;BME280;6449;47.666;9.160;2023-02-23T12:03:32;96680.59;;;10.91;100.00
13594;BME280;6449;47.666;9.160;2023-02-23T12:08:36;96677.38;;;10.99;100.00
13594;BME280;6449;47.666;9.160;2023-02-23T12:13:37;96672.13;;;10.99;100.00
13594;BME280;6449;47.666;9.160;2023-02-23T12:18:43;96673.75;;;11.11;100.00
13594;BME280;6449;47.666;9.160;2023-02-23T12:23:43;96666.09;;;11.19;100.00
13594;BME280;6449;47.666;9.160;2023-02-23T12:28:52;96672.63;;;11.25;100.00
13594;BME280;6449;47.666;9.160;2023-02-23T12:33:56;96662.69;;;11.28;100.00
13594;BME280;6449;47.666;9.160;2023-02-23T12:38:59;96667.09;;;11.28;100.00
13594;BME280;6449;47.666;9.160;2023-02-23T12:44:02;96657.78;;;11.35;100.00
13594;BME280;6449;47.666;9.160;2023-02-23T12:49:10;96652.03;;;11.41;100.00
13594;BME280;6449;47.666;9.160;2023-02-23T12:54:11;96653.44;;;11.45;100.00
13594;BME280;6449;47.666;9.160;2023-02-23T12:59:31;96660.28;;;11.37;100.00
13594;BME280;6449;47.666;9.160;2023-02-23T13:04:46;96644.91;;;11.32;100.00
13594;BME280;6449;47.666;9.160;2023-02-23T13:09:56;96630.06;;;11.42;100.00
13594;BME280;6449;47.666;9.160;2023-02-23T13:15:06;96634.19;;;11.45;100.00
13594;BME280;6449;47.666;9.160;2023-02-23T13:20:13;96636.00;;;11.44;100.00
13594;BME280;6449;47.666;9.160;2023-02-23T13:25:28;96638.38;;;11.26;100.00
13594;BME280;6449;47.666;9.160;2023-02-23T13:30:29;96634.47;;;11.21;100.00
13594;BME280;6449;47.666;9.160;2023-02-23T13:35:25;96624.72;;;11.12;100.00
13594;BME280;6449;47.666;9.160;2023-02-23T13:40:28;96623.75;;;11.13;100.00
13594;BME280;6449;47.666;9.160;2023-02-23T13:45:41;96617.75;;;11.22;100.00
13594;BME280;6449;47.666;9.160;2023-02-23T13:50:44;96615.00;;;11.23;100.00
13594;BME280;6449;47.666;9.160;2023-02-23T13:55:47;96619.34;;;11.34;100.00
13594;BME280;6449;47.666;9.160;2023-02-23T14:00:53;96616.69;;;11.45;100.00
13594;BME280;6449;47.666;9.160;2023-02-23T14:05:59;96620.59;;;11.51;100.00
13594;BME280;6449;47.666;9.160;2023-02-23T14:10:53;96618.13;;;11.59;100.00
13594;BME280;6449;47.666;9.160;2023-02-23T14:16:13;96615.97;;;11.43;100.00
13594;BME280;6449;47.666;9.160;2023-02-23T14:21:21;96612.72;;;11.51;100.00
13594;BME280;6449;47.666;9.160;2023-02-23T14:26:39;96605.16;;;11.58;100.00
13594;BME280;6449;47.666;9.160;2023-02-23T14:31:34;96606.38;;;11.53;100.00
13594;BME280;6449;47.666;9.160;2023-02-23T14:36:35;96603.34;;;11.58;100.00
13594;BME280;6449;47.666;9.160;2023-02-23T14:41:37;96603.75;;;11.53;100.00
13594;BME280;6449;47.666;9.160;2023-02-23T14:46:35;96599.31;;;11.54;100.00
13594;BME280;6449;47.666;9.160;2023-02-23T14:51:37;96591.88;;;11.59;100.00
13594;BME280;6449;47.666;9.160;2023-02-23T14:56:33;96596.88;;;11.62;100.00
13594;BME280;6449;47.666;9.160;2023-02-23T15:01:39;96590.38;;;11.66;100.00
13594;BME280;6449;47.666;9.160;2023-02-23T15:06:32;96588.78;;;11.75;100.00
13594;BME280;6449;47.666;9.160;2023-02-23T15:11:26;96591.16;;;11.78;100.00
13594;BME280;6449;47.666;9.160;2023-02-23T15:16:27;96587.66;;;11.68;100.00
13594;BME280;6449;47.666;9.160;2023-02-23T15:21:24;96597.50;;;11.54;100.00
13594;BME280;6449;47.666;9.160;2023-02-23T15:26:27;96589.91;;;11.51;100.00
13594;BME280;6449;47.666;9.160;2023-02-23T15:31:28;96591.00;;;11.49;100.00
13594;BME280;6449;47.666;9.160;2023-02-23T15:36:29;96594.00;;;11.44;100.00
13594;BME280;6449;47.666;9.160;2023-02-23T15:41:30;96586.97;;;11.45;100.00
13594;BME280;6449;47.666;9.160;2023-02-23T15:46:28;96584.75;;;11.40;100.00
13594;BME280;6449;47.666;9.160;2023-02-23T15:51:34;96588.00;;;11.33;100.00
13594;BME280;6449;47.666;9.160;2023-02-23T15:56:29;96593.63;;;11.28;100.00
13594;BME280;6449;47.666;9.160;2023-02-23T16:01:27;96580.78;;;11.25;100.00
13594;BME280;6449;47.666;9.160;2023-02-23T16:06:24;96583.50;;;11.23;100.00
13594;BME280;6449;47.666;9.160;2023-02-23T16:11:21;96580.00;;;11.13;100.00
13594;BME280;6449;47.666;9.160;2023-02-23T16:16:16;96575.16;;;11.09;100.00
13594;BME280;6449;47.666;9.160;2023-02-23T16:21:18;96578.66;;;10.98;100.00
13594;BME280;6449;47.666;9.160;2023-02-23T16:26:18;96586.06;;;10.93;100.00
13594;BME280;6449;47.666;9.160;2023-02-23T16:31:23;96587.66;;;10.84;100.00
13594;BME280;6449;47.666;9.160;2023-02-23T16:36:22;96591.28;;;10.72;100.00
13594;BME280;6449;47.666;9.160;2023-02-23T16:41:18;96582.88;;;10.57;100.00
13594;BME280;6449;47.666;9.160;2023-02-23T16:46:13;96580.16;;;10.47;100.00
13594;BME280;6449;47.666;9.160;2023-02-23T16:51:13;96581.84;;;10.37;100.00
13594;BME280;6449;47.666;9.160;2023-02-23T16:56:10;96587.09;;;10.26;100.00
13594;BME280;6449;47.666;9.160;2023-02-23T17:01:06;96591.38;;;10.16;100.00
13594;BME280;6449;47.666;9.160;2023-02-23T17:05:59;96590.34;;;10.07;100.00
13594;BME280;6449;47.666;9.160;2023-02-23T17:10:55;96589.72;;;10.04;100.00
13594;BME280;6449;47.666;9.160;2023-02-23T17:15:51;96585.81;;;9.98;100.00
13594;BME280;6449;47.666;9.160;2023-02-23T17:20:47;96589.88;;;9.91;100.00
13594;BME280;6449;47.666;9.160;2023-02-23T17:25:41;96597.94;;;9.77;100.00
13594;BME280;6449;47.666;9.160;2023-02-23T17:30:37;96598.41;;;9.48;100.00
13594;BME280;6449;47.666;9.160;2023-02-23T17:35:33;96605.28;;;9.38;100.00
13594;BME280;6449;47.666;9.160;2023-02-23T17:40:28;96604.91;;;9.42;100.00
13594;BME280;6449;47.666;9.160;2023-02-23T17:45:26;96604.91;;;9.42;100.00
13594;BME280;6449;47.666;9.160;2023-02-23T17:50:21;96616.06;;;9.22;100.00
13594;BME280;6449;47.666;9.160;2023-02-23T17:55:20;96622.47;;;9.18;100.00
13594;BME280;6449;47.666;9.160;2023-02-23T18:00:16;96618.69;;;9.22;100.00
13594;BME280;6449;47.666;9.160;2023-02-23T18:05:13;96617.09;;;9.08;100.00
13594;BME280;6449;47.666;9.160;2023-02-23T18:10:10;96618.16;;;9.06;100.00
13594;BME280;6449;47.666;9.160;2023-02-23T18:15:06;96620.13;;;8.91;100.00
13594;BME280;6449;47.666;9.160;2023-02-23T18:19:59;96635.66;;;8.81;100.00
13594;BME280;6449;47.666;9.160;2023-02-23T18:24:56;96641.78;;;8.69;100.00
13594;BME280;6449;47.666;9.160;2023-02-23T18:30:13;96646.38;;;8.65;100.00
13594;BME280;6449;47.666;9.160;2023-02-23T18:35:07;96638.41;;;8.67;100.00
13594;BME280;6449;47.666;9.160;2023-02-23T18:40:01;96640.97;;;8.56;100.00
13594;BME280;6449;47.666;9.160;2023-02-23T18:44:56;96639.53;;;8.52;100.00
13594;BME280;6449;47.666;9.160;2023-02-23T18:49:51;96647.41;;;8.39;100.00
13594;BME280;6449;47.666;9.160;2023-02-23T18:54:45;96652.84;;;8.23;100.00
13594;BME280;6449;47.666;9.160;2023-02-23T18:59:38;96649.44;;;7.97;100.00
13594;BME280;6449;47.666;9.160;2023-02-23T19:04:31;96647.38;;;7.90;100.00
13594;BME280;6449;47.666;9.160;2023-02-23T19:09:26;96642.69;;;7.95;100.00
13594;BME280;6449;47.666;9.160;2023-02-23T19:21:48;96644.63;;;8.04;100.00
13594;BME280;6449;47.666;9.160;2023-02-23T19:27:40;96642.75;;;7.93;100.00
13594;BME280;6449;47.666;9.160;2023-02-23T19:39:04;96643.31;;;7.85;100.00
13594;BME280;6449;47.666;9.160;2023-02-23T19:44:07;96646.97;;;7.83;100.00
13594;BME280;6449;47.666;9.160;2023-02-23T19:49:03;96636.22;;;7.75;100.00
13594;BME280;6449;47.666;9.160;2023-02-23T19:53:59;96646.34;;;7.79;100.00
13594;BME280;6449;47.666;9.160;2023-02-23T19:58:59;96646.88;;;7.59;100.00
13594;BME280;6449;47.666;9.160;2023-02-23T20:03:56;96653.13;;;7.69;100.00
13594;BME280;6449;47.666;9.160;2023-02-23T20:09:00;96655.63;;;7.71;100.00
13594;BME280;6449;47.666;9.160;2023-02-23T20:13:54;96653.84;;;7.58;100.00
13594;BME280;6449;47.666;9.160;2023-02-23T20:18:49;96658.44;;;7.55;100.00
13594;BME280;6449;47.666;9.160;2023-02-23T20:23:46;96661.56;;;7.47;100.00
13594;BME280;6449;47.666;9.160;2023-02-23T20:28:39;96658.44;;;7.55;100.00
13594;BME280;6449;47.666;9.160;2023-02-23T20:33:36;96653.22;;;7.55;100.00
13594;BME280;6449;47.666;9.160;2023-02-23T20:38:29;96655.94;;;7.53;100.00
13594;BME280;6449;47.666;9.160;2023-02-23T20:43:24;96651.44;;;7.43;100.00
13594;BME280;6449;47.666;9.160;2023-02-23T20:48:18;96658.94;;;7.34;100.00
13594;BME280;6449;47.666;9.160;2023-02-23T20:53:11;96664.44;;;7.04;100.00
13594;BME280;6449;47.666;9.160;2023-02-23T20:58:04;96658.28;;;7.05;100.00
13594;BME280;6449;47.666;9.160;2023-02-23T21:03:01;96658.59;;;7.14;100.00
13594;BME280;6449;47.666;9.160;2023-02-23T21:07:58;96661.16;;;7.01;100.00
13594;BME280;6449;47.666;9.160;2023-02-23T21:12:52;96656.91;;;7.00;100.00
13594;BME280;6449;47.666;9.160;2023-02-23T21:17:47;96660.84;;;6.93;100.00
13594;BME280;6449;47.666;9.160;2023-02-23T21:22:42;96666.41;;;6.74;100.00
13594;BME280;6449;47.666;9.160;2023-02-23T21:27:36;96668.91;;;6.75;100.00
13594;BME280;6449;47.666;9.160;2023-02-23T21:32:29;96662.84;;;6.75;100.00
13594;BME280;6449;47.666;9.160;2023-02-23T21:37:26;96657.34;;;6.79;100.00
13594;BME280;6449;47.666;9.160;2023-02-23T21:42:21;96663.25;;;6.69;100.00
13594;BME280;6449;47.666;9.160;2023-02-23T21:47:15;96650.13;;;6.70;100.00
13594;BME280;6449;47.666;9.160;2023-02-23T21:52:08;96650.66;;;6.75;100.00
13594;BME280;6449;47.666;9.160;2023-02-23T21:57:04;96657.31;;;6.40;100.00
13594;BME280;6449;47.666;9.160;2023-02-23T22:01:59;96658.09;;;6.13;100.00
13594;BME280;6449;47.666;9.160;2023-02-23T22:06:52;96648.41;;;6.15;100.00
13594;BME280;6449;47.666;9.160;2023-02-23T22:11:46;96646.91;;;6.25;100.00
13594;BME280;6449;47.666;9.160;2023-02-23T22:16:40;96645.16;;;6.12;100.00
13594;BME280;6449;47.666;9.160;2023-02-23T22:21:37;96639.34;;;6.08;100.00
13594;BME280;6449;47.666;9.160;2023-02-23T22:26:31;96630.75;;;6.06;100.00
13594;BME280;6449;47.666;9.160;2023-02-23T22:31:25;96617.38;;;6.12;100.00
13594;BME280;6449;47.666;9.160;2023-02-23T22:36:19;96616.75;;;6.09;100.00
13594;BME280;6449;47.666;9.160;2023-02-23T22:41:14;96615.53;;;5.71;100.00
13594;BME280;6449;47.666;9.160;2023-02-23T22:46:08;96611.72;;;5.77;100.00
13594;BME280;6449;47.666;9.160;2023-02-23T22:51:02;96610.31;;;5.86;100.00
13594;BME280;6449;47.666;9.160;2023-02-23T22:55:56;96603.84;;;5.93;100.00
13594;BME280;6449;47.666;9.160;2023-02-23T23:00:52;96593.06;;;5.99;100.00
13594;BME280;6449;47.666;9.160;2023-02-23T23:05:56;96592.34;;;5.97;100.00
13594;BME280;6449;47.666;9.160;2023-02-23T23:10:53;96591.94;;;5.89;100.00
13594;BME280;6449;47.666;9.160;2023-02-23T23:15:48;96595.69;;;5.70;100.00
13594;BME280;6449;47.666;9.160;2023-02-23T23:20:46;96581.72;;;5.43;100.00
13594;BME280;6449;47.666;9.160;2023-02-23T23:25:44;96589.34;;;5.32;100.00
13594;BME280;6449;47.666;9.160;2023-02-23T23:30:38;96585.28;;;5.28;100.00
13594;BME280;6449;47.666;9.160;2023-02-23T23:35:33;96592.13;;;5.29;100.00
13594;BME280;6449;47.666;9.160;2023-02-23T23:40:28;96578.41;;;5.41;100.00
13594;BME280;6449;47.666;9.160;2023-02-23T23:45:27;96578.94;;;5.32;100.00
13594;BME280;6449;47.666;9.160;2023-02-23T23:50:21;96571.16;;;5.46;100.00
13594;BME280;6449;47.666;9.160;2023-02-23T23:55:18;96574.59;;;5.61;100.00
